Time;durP1;ratioP1;P1;durP2;ratioP2;P2;SDS_P1;SDS_P2;PMS_P1;PMS_P2;Temp;Humidity;BMP_temperature;BMP_pressure;BME280_temperature;BME280_humidity;BME280_pressure;Samples;Min_cycle;Max_cycle;Signal;HPM_P1;HPM_P2
2023/01/04 00:02:06;;;;;;;12.23;5.12;;;;;;;5.07;100.00;101370.23;1728187;82;21084;-87
2023/01/04 00:04:50;;;;;;;10.35;5.37;;;;;;;5.00;100.00;101372.19;1717113;82;21017;-87
2023/01/04 00:07:35;;;;;;;9.88;5.40;;;;;;;4.91;100.00;101373.79;1729310;82;21017;-88
2023/01/04 00:10:20;;;;;;;9.88;4.55;;;;;;;4.89;100.00;101380.48;1715410;82;21084;-87
2023/01/04 00:13:05;;;;;;;10.30;5.33;;;;;;;4.80;100.00;101377.72;1711176;82;21564;-88
2023/01/04 00:15:49;;;;;;;9.28;5.65;;;;;;;4.76;100.00;101384.64;1714343;82;21116;-87
2023/01/04 00:18:36;;;;;;;12.28;5.50;;;;;;;4.77;100.00;101387.11;1714570;82;21005;-88
2023/01/04 00:21:25;;;;;;;9.90;5.17;;;;;;;4.69;100.00;101392.27;1714178;82;21037;-88
2023/01/04 00:24:09;;;;;;;8.65;4.80;;;;;;;4.69;100.00;101392.27;1721344;82;21073;-87
2023/01/04 00:26:53;;;;;;;6.47;4.53;;;;;;;4.69;100.00;101399.03;1726717;82;21106;-87
2023/01/04 00:29:38;;;;;;;13.60;5.05;;;;;;;4.62;100.00;101398.77;1718777;82;21052;-87
2023/01/04 00:32:23;;;;;;;9.03;4.67;;;;;;;4.54;100.00;101406.61;1718550;82;21746;-87
2023/01/04 00:35:09;;;;;;;9.50;4.50;;;;;;;4.45;100.00;101406.55;1729583;82;21061;-88
2023/01/04 00:37:54;;;;;;;7.62;4.75;;;;;;;4.39;100.00;101403.36;1722427;82;21013;-88
2023/01/04 00:40:39;;;;;;;9.23;5.55;;;;;;;4.32;100.00;101400.67;1714629;82;20945;-87
2023/01/04 00:43:24;;;;;;;7.37;4.47;;;;;;;4.28;100.00;101402.99;1732865;82;21541;-88
2023/01/04 00:46:10;;;;;;;8.03;5.00;;;;;;;4.31;100.00;101400.38;1724208;82;21048;-88
2023/01/04 00:48:55;;;;;;;8.60;4.90;;;;;;;4.30;100.00;101398.70;1711797;82;20987;-88
2023/01/04 00:51:40;;;;;;;10.20;4.90;;;;;;;4.26;100.00;101401.55;1731635;82;21207;-87
2023/01/04 00:54:26;;;;;;;15.13;6.10;;;;;;;4.27;100.00;101405.38;1724278;82;21085;-88
2023/01/04 00:57:10;;;;;;;9.58;5.15;;;;;;;4.33;100.00;101409.13;1728347;82;21512;-87
2023/01/04 00:59:55;;;;;;;9.50;5.15;;;;;;;4.21;100.00;101409.48;1722719;82;21886;-87
2023/01/04 01:02:40;;;;;;;10.75;5.17;;;;;;;4.17;100.00;101407.70;1719288;82;20989;-88
2023/01/04 01:05:24;;;;;;;9.53;4.83;;;;;;;4.17;100.00;101399.59;1712199;82;21029;-88
2023/01/04 01:09:10;;;;;;;7.22;4.95;;;;;;;4.34;100.00;101397.77;1733629;82;21061;-89
2023/01/04 01:11:07;;;;;;;8.48;4.75;;;;;;;4.43;100.00;101395.12;1712669;82;21478;-88
2023/01/04 01:13:52;;;;;;;9.78;5.15;;;;;;;4.42;100.00;101386.69;1728126;82;20990;-87
2023/01/04 01:16:37;;;;;;;8.08;4.75;;;;;;;4.37;100.00;101397.33;1733833;82;21068;-88
2023/01/04 01:19:22;;;;;;;11.68;4.80;;;;;;;4.41;100.00;101386.39;1723529;82;21025;-87
2023/01/04 01:22:07;;;;;;;8.75;4.75;;;;;;;4.50;100.00;101390.48;1727965;82;21492;-88
2023/01/04 01:24:51;;;;;;;7.45;4.33;;;;;;;4.53;100.00;101388.20;1723038;82;21093;-87
2023/01/04 01:27:36;;;;;;;9.55;4.65;;;;;;;4.56;100.00;101382.87;1736784;82;21038;-87
2023/01/04 01:30:21;;;;;;;6.42;3.80;;;;;;;4.53;100.00;101388.72;1722658;82;21080;-87
2023/01/04 01:33:06;;;;;;;6.78;4.10;;;;;;;4.53;100.00;101390.08;1731178;82;21017;-88
2023/01/04 01:35:51;;;;;;;9.73;4.25;;;;;;;4.52;100.00;101390.61;1732329;82;21017;-87
2023/01/04 01:38:35;;;;;;;6.83;3.90;;;;;;;4.43;100.00;101385.66;1716446;82;21037;-88
2023/01/04 01:41:28;;;;;;;8.85;4.30;;;;;;;4.41;100.00;101386.39;1730420;82;20999;-87
2023/01/04 01:44:45;;;;;;;9.23;4.70;;;;;;;4.35;100.00;101392.65;1722716;82;21009;-88
2023/01/04 01:47:37;;;;;;;10.28;4.42;;;;;;;4.36;100.00;101395.16;1730650;82;21497;-87
2023/01/04 01:50:26;;;;;;;8.23;4.03;;;;;;;4.31;100.00;101387.67;1721595;82;21104;-87
2023/01/04 01:53:11;;;;;;;6.40;4.00;;;;;;;4.29;100.00;101403.28;1728110;82;20966;-88
2023/01/04 01:55:56;;;;;;;9.85;3.87;;;;;;;4.23;100.00;101402.80;1736173;82;21041;-88
2023/01/04 01:58:43;;;;;;;7.20;4.35;;;;;;;4.16;100.00;101402.00;1718686;82;21021;-88
2023/01/04 02:01:28;;;;;;;6.35;4.05;;;;;;;4.14;100.00;101401.38;1699075;82;21045;-88
2023/01/04 02:04:13;;;;;;;8.05;3.77;;;;;;;4.15;100.00;101406.26;1730779;81;21064;-87
2023/01/04 02:06:59;;;;;;;7.37;3.92;;;;;;;4.14;100.00;101401.38;1739677;81;20923;-88
2023/01/04 02:09:45;;;;;;;5.83;3.58;;;;;;;4.17;100.00;101407.70;1737625;81;21576;-88
2023/01/04 02:12:30;;;;;;;6.15;2.80;;;;;;;4.19;100.00;101400.21;1714685;82;21067;-87
2023/01/04 02:15:15;;;;;;;6.42;3.77;;;;;;;4.18;100.00;101394.50;1732742;82;21033;-88
2023/01/04 02:18:09;;;;;;;8.25;4.10;;;;;;;4.13;100.00;101394.81;1744088;81;21072;-88
2023/01/04 02:21:07;;;;;;;5.70;3.30;;;;;;;4.16;100.00;101391.70;1712081;82;22043;-88
2023/01/04 02:24:08;;;;;;;6.30;4.30;;;;;;;4.13;100.00;101398.88;1746780;81;20884;-88
2023/01/04 02:27:32;;;;;;;6.45;3.62;;;;;;;4.12;100.00;101392.64;1732309;82;20996;-87
2023/01/04 02:31:03;;;;;;;4.72;3.22;;;;;;;4.02;100.00;101398.49;1715783;82;21084;-88
2023/01/04 02:34:00;;;;;;;5.55;2.98;;;;;;;4.03;100.00;101402.87;1721428;82;21080;-89
2023/01/04 02:37:17;;;;;;;7.70;3.67;;;;;;;4.02;100.00;101392.27;1729353;81;21000;-88
2023/01/04 02:40:24;;;;;;;5.65;2.87;;;;;;;4.00;100.00;101391.64;1644330;85;21062;-87
2023/01/04 02:46:35;;;;;;;4.92;3.17;;;;;;;3.84;100.00;101393.77;1746736;81;21073;-88
2023/01/04 02:52:22;;;;;;;5.53;2.65;;;;;;;3.72;100.00;101402.21;1741292;81;21002;-88
2023/01/04 02:55:07;;;;;;;7.15;3.60;;;;;;;3.69;100.00;101402.64;1731403;81;21022;-88
2023/01/04 02:57:58;;;;;;;6.70;2.95;;;;;;;3.70;100.00;101406.99;1739669;81;20989;-88
2023/01/04 03:08:16;;;;;;;6.47;3.00;;;;;;;3.72;100.00;101403.56;1745301;81;21037;-88
2023/01/04 03:14:18;;;;;;;4.25;2.70;;;;;;;3.71;100.00;101408.67;1731026;82;21013;-88
2023/01/04 03:17:06;;;;;;;2.80;2.50;;;;;;;3.66;100.00;101398.48;1736998;81;21006;-89
2023/01/04 03:19:53;;;;;;;4.62;2.83;;;;;;;3.63;100.00;101402.11;1723789;81;21033;-88
2023/01/04 03:35:21;;;;;;;5.55;3.40;;;;;;;3.41;100.00;101394.75;1708578;82;21054;-87
2023/01/04 03:51:18;;;;;;;4.78;2.58;;;;;;;3.37;100.00;101402.45;1714580;82;21124;-89
2023/01/04 03:54:20;;;;;;;5.62;2.60;;;;;;;3.33;100.00;101408.48;1725240;82;21025;-88
2023/01/04 03:57:06;;;;;;;3.40;2.27;;;;;;;3.35;100.00;101408.58;1710120;82;21069;-89
2023/01/04 04:00:03;;;;;;;7.00;2.52;;;;;;;3.38;100.00;101404.11;1732976;82;21072;-87
2023/01/04 04:02:50;;;;;;;2.77;1.85;;;;;;;3.39;100.00;101401.73;1722781;82;21029;-88
2023/01/04 04:08:42;;;;;;;3.27;2.27;;;;;;;3.34;100.00;101405.58;1736433;82;21018;-88
2023/01/04 04:11:30;;;;;;;4.53;2.20;;;;;;;3.35;100.00;101408.58;1725342;82;21606;-88
2023/01/04 04:14:14;;;;;;;6.55;2.27;;;;;;;3.35;100.00;101404.53;1714018;82;21088;-88
2023/01/04 04:16:59;;;;;;;6.30;2.30;;;;;;;3.35;100.00;101404.53;1733690;82;21040;-88
2023/01/04 04:19:44;;;;;;;3.30;2.52;;;;;;;3.34;100.00;101399.33;1711540;82;21647;-88
2023/01/04 04:22:29;;;;;;;3.17;2.20;;;;;;;3.28;100.00;101398.30;1722281;82;21014;-88
2023/01/04 04:25:13;;;;;;;4.87;1.90;;;;;;;3.21;100.00;101410.96;1732996;82;21032;-88
2023/01/04 04:27:58;;;;;;;4.42;2.27;;;;;;;3.19;100.00;101402.23;1724633;82;21107;-88
2023/01/04 04:30:43;;;;;;;5.20;2.35;;;;;;;3.13;100.00;101402.55;1726424;82;21027;-88
2023/01/04 04:33:28;;;;;;;4.97;2.12;;;;;;;3.05;100.00;101401.94;1735450;82;21023;-88
2023/01/04 04:36:12;;;;;;;4.28;2.37;;;;;;;3.02;100.00;101396.43;1730177;82;21057;-89
2023/01/04 04:38:56;;;;;;;4.33;2.60;;;;;;;2.94;100.00;101391.20;1718060;82;21496;-87
2023/01/04 04:41:41;;;;;;;3.85;2.12;;;;;;;2.98;100.00;101393.29;1732393;82;21166;-88
2023/01/04 04:44:25;;;;;;;6.12;3.15;;;;;;;2.89;100.00;101403.97;1744411;81;21115;-88
2023/01/04 04:47:09;;;;;;;6.85;3.35;;;;;;;2.88;100.00;101406.36;1721285;82;21040;-88
2023/01/04 04:49:54;;;;;;;6.35;2.98;;;;;;;2.87;100.00;101406.55;1710417;82;21624;-88
2023/01/04 04:52:40;;;;;;;7.25;2.65;;;;;;;2.82;100.00;101411.25;1734967;82;21452;-88
2023/01/04 04:55:25;;;;;;;3.45;2.72;;;;;;;2.79;100.00;101407.58;1708154;82;21025;-88
2023/01/04 04:58:09;;;;;;;4.55;3.08;;;;;;;2.78;100.00;101400.53;1727717;82;20998;-89
2023/01/04 05:00:53;;;;;;;4.20;3.00;;;;;;;2.82;100.00;101404.99;1714189;82;21009;-88
2023/01/04 05:03:38;;;;;;;6.65;3.12;;;;;;;2.86;100.00;101400.86;1725451;82;21041;-87
2023/01/04 05:06:22;;;;;;;6.03;3.00;;;;;;;2.80;100.00;101401.16;1727013;81;21012;-88
2023/01/04 05:09:07;;;;;;;5.50;3.02;;;;;;;2.82;100.00;101399.10;1704494;83;21543;-89
2023/01/04 05:14:55;;;;;;;;;;;;;;;2.85;100.00;101409.48;1738991;81;21060;-89
2023/01/04 05:17:40;;;;;;;6.80;3.17;;;;;;;2.80;100.00;101410.62;1737233;81;20753;-90
2023/01/04 05:20:24;;;;;;;5.22;2.85;;;;;;;2.78;100.00;101403.23;1722360;82;21461;-88
2023/01/04 05:23:11;;;;;;;4.22;2.85;;;;;;;2.77;100.00;101404.28;1744880;81;21040;-88
2023/01/04 05:25:57;;;;;;;4.70;2.75;;;;;;;2.73;100.00;101412.47;1697928;83;21037;-88
2023/01/04 05:28:42;;;;;;;5.33;3.12;;;;;;;2.70;100.00;101412.36;1715112;83;21553;-89
2023/01/04 05:31:27;;;;;;;4.08;2.70;;;;;;;2.70;100.00;101418.28;1730559;81;21506;-88
2023/01/04 05:34:11;;;;;;;3.72;2.58;;;;;;;2.59;100.00;101420.50;1732794;81;21092;-88
2023/01/04 05:36:56;;;;;;;4.45;3.27;;;;;;;2.54;100.00;101424.33;1736125;81;21004;-88
2023/01/04 05:39:40;;;;;;;5.55;3.37;;;;;;;2.54;100.00;101427.55;1727741;81;21605;-89
2023/01/04 05:42:26;;;;;;;6.70;2.77;;;;;;;2.67;100.00;101420.01;1720419;83;21549;-88
2023/01/04 05:45:12;;;;;;;6.83;3.10;;;;;;;2.57;100.00;101421.25;1728937;82;21057;-88
2023/01/04 05:47:57;;;;;;;5.33;2.83;;;;;;;2.64;100.00;101425.30;1736954;81;21091;-87
2023/01/04 05:50:44;;;;;;;7.08;3.40;;;;;;;2.61;100.00;101423.53;1721326;82;20994;-88
2023/01/04 05:53:29;;;;;;;4.20;3.40;;;;;;;2.55;100.00;101426.02;1725176;81;21416;-88
2023/01/04 05:56:14;;;;;;;5.42;2.77;;;;;;;2.51;100.00;101434.19;1731804;82;21002;-87
2023/01/04 05:58:58;;;;;;;6.45;3.40;;;;;;;2.56;100.00;101422.27;1728126;81;20993;-89
2023/01/04 06:01:43;;;;;;;7.28;3.02;;;;;;;2.57;100.00;101433.39;1706507;81;21080;-88
2023/01/04 06:04:28;;;;;;;7.58;3.42;;;;;;;2.51;100.00;101435.53;1701139;83;21082;-88
2023/01/04 06:07:13;;;;;;;7.28;3.83;;;;;;;2.51;100.00;101441.45;1728944;82;21040;-88
2023/01/04 06:09:57;;;;;;;7.90;3.62;;;;;;;2.59;100.00;101448.02;1723583;82;21088;-89
2023/01/04 06:12:43;;;;;;;5.05;3.50;;;;;;;2.62;100.00;101442.73;1719249;82;21053;-89
2023/01/04 06:15:27;;;;;;;5.95;3.35;;;;;;;2.66;100.00;101443.47;1697001;82;21020;-89
2023/01/04 06:18:13;;;;;;;8.13;3.45;;;;;;;2.71;100.00;101449.62;1708247;82;21660;-88
2023/01/04 06:20:58;;;;;;;8.03;3.77;;;;;;;2.73;100.00;101451.60;1715689;82;21098;-90
2023/01/04 06:23:43;;;;;;;5.97;2.98;;;;;;;2.61;100.00;101459.97;1716262;82;21081;-88
2023/01/04 06:26:28;;;;;;;5.72;3.67;;;;;;;2.65;100.00;101461.23;1722636;82;21026;-89
2023/01/04 06:29:12;;;;;;;5.17;3.20;;;;;;;2.68;100.00;101469.75;1721991;82;21013;-88
2023/01/04 06:31:57;;;;;;;5.25;3.17;;;;;;;2.70;100.00;101470.91;1725550;82;21044;-89
2023/01/04 06:34:41;;;;;;;6.95;3.00;;;;;;;2.71;100.00;101472.03;1729402;82;20989;-90
2023/01/04 06:37:26;;;;;;;6.45;3.72;;;;;;;2.70;100.00;101462.81;1725833;81;21113;-89
2023/01/04 06:40:11;;;;;;;7.45;3.42;;;;;;;2.76;100.00;101475.48;1725104;82;21016;-88
2023/01/04 06:42:56;;;;;;;5.30;2.90;;;;;;;2.97;100.00;101473.17;1708567;82;21762;-88
2023/01/04 06:45:41;;;;;;;8.20;3.87;;;;;;;3.01;100.00;101479.28;1716195;82;21044;-88
2023/01/04 06:48:27;;;;;;;8.50;3.60;;;;;;;3.10;100.00;101485.86;1719876;82;21481;-89
2023/01/04 06:51:12;;;;;;;10.63;4.62;;;;;;;3.18;100.00;101480.27;1721706;81;21017;-89
2023/01/04 06:53:57;;;;;;;6.28;3.25;;;;;;;3.17;100.00;101488.06;1709635;82;21032;-88
2023/01/04 06:56:43;;;;;;;4.17;3.45;;;;;;;3.23;100.00;101481.83;1723026;82;21116;-89
2023/01/04 06:59:27;;;;;;;5.67;3.33;;;;;;;3.24;100.00;101486.20;1728476;82;21473;-89
2023/01/04 07:02:13;;;;;;;6.53;3.67;;;;;;;3.29;100.00;101490.97;1721789;82;21021;-89
2023/01/04 07:04:58;;;;;;;5.80;3.70;;;;;;;3.37;100.00;101480.81;1721242;81;21530;-88
2023/01/04 07:07:44;;;;;;;4.80;3.33;;;;;;;3.44;100.00;101485.70;1719000;81;21009;-88
2023/01/04 07:10:30;;;;;;;5.75;3.47;;;;;;;3.58;100.00;101489.75;1716407;82;22108;-88
2023/01/04 07:13:15;;;;;;;5.85;3.20;;;;;;;3.66;100.00;101488.22;1686696;84;20978;-88
2023/01/04 07:16:00;;;;;;;11.28;3.62;;;;;;;3.77;100.00;101496.20;1725417;82;21047;-88
2023/01/04 07:18:44;;;;;;;5.83;3.22;;;;;;;3.81;100.00;101497.46;1743351;81;21055;-88
2023/01/04 07:21:29;;;;;;;5.97;3.50;;;;;;;3.86;100.00;101491.73;1704000;82;21026;-88
2023/01/04 07:24:14;;;;;;;7.35;3.75;;;;;;;3.92;100.00;101488.70;1713860;82;21022;-87
2023/01/04 07:26:59;;;;;;;7.17;3.40;;;;;;;4.02;100.00;101492.33;1704712;82;20998;-87
2023/01/04 07:29:45;;;;;;;6.97;3.52;;;;;;;4.03;100.00;101492.62;1725809;82;21029;-88
2023/01/04 07:32:30;;;;;;;5.65;3.17;;;;;;;4.03;100.00;101490.78;1714223;82;21023;-88
2023/01/04 07:35:15;;;;;;;6.37;3.27;;;;;;;4.12;100.00;101490.02;1730520;80;21512;-88
2023/01/04 07:38:00;;;;;;;4.80;3.35;;;;;;;4.18;100.00;101482.43;1719362;82;21064;-88
2023/01/04 07:40:44;;;;;;;9.70;3.62;;;;;;;4.29;100.00;101493.94;1727066;82;21013;-88
2023/01/04 07:43:29;;;;;;;9.75;3.55;;;;;;;4.31;100.00;101492.38;1701926;82;20990;-87
2023/01/04 07:46:14;;;;;;;5.40;2.90;;;;;;;4.23;100.00;101492.09;1715689;82;21025;-88
2023/01/04 07:49:03;;;;;;;6.35;2.90;;;;;;;4.31;100.00;101497.27;1710420;82;20986;-87
2023/01/04 07:51:47;;;;;;;6.10;3.20;;;;;;;4.49;100.00;101488.98;1730683;82;21093;-88
2023/01/04 07:54:31;;;;;;;7.50;3.62;;;;;;;4.60;100.00;101499.16;1716931;82;21025;-88
2023/01/04 07:57:16;;;;;;;7.87;3.45;;;;;;;4.65;100.00;101491.23;1719298;82;21432;-88
2023/01/04 09:06:21;;;;;;;6.20;3.37;;;;;;;3.46;100.00;101482.78;1808558;77;22050;-87
2023/01/04 09:09:05;;;;;;;6.90;3.62;;;;;;;3.61;100.00;101483.43;1739499;80;20990;-88
2023/01/04 09:11:51;;;;;;;5.20;3.80;;;;;;;3.82;100.00;101485.59;1754663;80;21030;-89
2023/01/04 09:14:36;;;;;;;8.05;3.70;;;;;;;4.02;100.00;101490.45;1753708;80;21050;-89
2023/01/04 09:17:21;;;;;;;4.17;2.85;;;;;;;4.22;100.00;101489.05;1753824;80;21037;-89
2023/01/04 09:20:07;;;;;;;7.28;3.55;;;;;;;4.36;100.00;101482.28;1742598;81;21046;-89
2023/01/04 09:22:52;;;;;;;6.00;3.25;;;;;;;4.41;100.00;101487.87;1708112;83;21015;-89
2023/01/04 09:25:39;;;;;;;7.80;3.90;;;;;;;4.50;100.00;101489.28;1741872;81;21011;-89
2023/01/04 09:28:23;;;;;;;3.72;3.05;;;;;;;4.54;100.00;101485.11;1728433;80;21965;-89
2023/01/04 09:31:10;;;;;;;5.20;2.95;;;;;;;4.55;100.00;101488.64;1731716;80;21066;-89
2023/01/04 09:33:56;;;;;;;3.90;3.02;;;;;;;4.56;100.00;101491.15;1720455;82;21006;-89
2023/01/04 09:36:40;;;;;;;5.08;3.15;;;;;;;4.53;100.00;101491.05;1737250;80;21079;-90
2023/01/04 09:39:29;;;;;;;5.70;3.10;;;;;;;4.55;100.00;101492.21;1714434;81;21093;-90
2023/01/04 09:42:31;;;;;;;5.72;3.42;;;;;;;4.53;100.00;101486.17;1714146;82;21001;-90
2023/01/04 09:45:25;;;;;;;4.25;2.90;;;;;;;4.51;100.00;101488.25;1720173;81;21422;-90
2023/01/04 09:48:14;;;;;;;5.95;2.45;;;;;;;4.48;100.00;101488.16;1698174;82;21054;-89
2023/01/04 09:51:01;;;;;;;4.25;2.37;;;;;;;4.46;100.00;101491.60;1727444;80;21563;-90
2023/01/04 09:53:51;;;;;;;3.22;2.45;;;;;;;4.46;100.00;101488.07;1712170;81;20991;-89
2023/01/04 09:56:36;;;;;;;6.60;3.50;;;;;;;4.46;100.00;101494.83;1721581;81;21466;-89
2023/01/04 09:59:26;;;;;;;4.90;2.67;;;;;;;4.46;100.00;101499.72;1645687;84;21056;-89
2023/01/04 10:02:12;;;;;;;4.53;2.52;;;;;;;4.46;100.00;101494.83;1721011;80;21080;-90
2023/01/04 10:04:56;;;;;;;4.25;2.70;;;;;;;4.44;100.00;101490.15;1694543;83;21942;-89
2023/01/04 10:07:41;;;;;;;8.55;3.40;;;;;;;4.42;100.00;101481.41;1731189;80;20979;-88
2023/01/04 10:10:49;;;;;;;3.70;2.40;;;;;;;4.42;100.00;101478.17;1739167;81;21026;-90
2023/01/04 10:14:05;;;;;;;4.37;2.90;;;;;;;4.42;100.00;101469.23;1720296;82;20996;-89
2023/01/04 10:17:17;;;;;;;4.55;2.80;;;;;;;4.39;100.00;101481.31;1680186;82;21035;-89
2023/01/04 10:20:16;;;;;;;6.10;2.58;;;;;;;4.39;100.00;101485.91;1717685;82;21547;-89
2023/01/04 10:23:22;;;;;;;3.92;2.10;;;;;;;4.40;100.00;101478.08;1724492;82;21076;-88
2023/01/04 10:26:15;;;;;;;3.67;2.30;;;;;;;4.38;100.00;101479.66;1741858;82;21062;-89
2023/01/04 10:29:35;;;;;;;3.55;2.20;;;;;;;4.39;100.00;101496.73;1727238;81;21012;-90
2023/01/04 10:32:42;;;;;;;4.42;2.85;;;;;;;4.37;100.00;101490.69;1706173;82;21030;-89
2023/01/04 10:35:26;;;;;;;4.08;2.30;;;;;;;4.37;100.00;101485.28;1694877;82;21041;-89
2023/01/04 10:38:25;;;;;;;6.60;2.77;;;;;;;4.39;100.00;101477.78;1722080;82;21000;-89
2023/01/04 10:41:15;;;;;;;4.05;2.20;;;;;;;4.37;100.00;101482.05;1710271;82;20987;-89
2023/01/04 10:44:08;;;;;;;5.75;2.65;;;;;;;4.40;100.00;101483.49;1658359;85;21070;-88
2023/01/04 10:47:14;;;;;;;4.00;2.10;;;;;;;4.38;100.00;101485.61;1692342;83;21454;-88
2023/01/04 10:50:06;;;;;;;4.55;2.37;;;;;;;4.36;100.00;101487.16;1741311;81;21509;-89
2023/01/04 10:53:07;;;;;;;3.22;2.00;;;;;;;4.38;100.00;101474.78;1718962;81;21113;-90
2023/01/04 10:56:06;;;;;;;3.90;2.50;;;;;;;4.38;100.00;101473.42;1688437;83;21086;-90
2023/01/04 10:59:08;;;;;;;2.60;2.05;;;;;;;4.37;100.00;101480.69;1704961;83;21027;-89
2023/01/04 11:02:01;;;;;;;2.90;2.17;;;;;;;4.38;100.00;101482.91;1705789;83;21024;-89
2023/01/04 11:05:00;;;;;;;4.35;2.08;;;;;;;4.36;100.00;101470.09;1674597;83;21067;-91
2023/01/04 11:08:21;;;;;;;5.75;2.80;;;;;;;4.36;100.00;101466.04;1706326;84;21035;-89
2023/01/04 11:11:22;;;;;;;5.10;2.45;;;;;;;4.35;100.00;101469.77;1614015;88;21118;-89
2023/01/04 11:14:06;;;;;;;4.87;2.40;;;;;;;4.38;100.00;101462.60;1669401;85;21113;-89
2023/01/04 11:16:58;;;;;;;3.72;2.37;;;;;;;4.42;100.00;101465.17;1706476;83;21011;-89
2023/01/04 11:19:43;;;;;;;5.60;2.80;;;;;;;4.41;100.00;101464.88;1709160;83;21035;-89
2023/01/04 11:22:38;;;;;;;7.55;2.37;;;;;;;4.45;100.00;101457.97;1734355;81;21033;-90
2023/01/04 11:25:23;;;;;;;8.03;2.95;;;;;;;4.44;100.00;101452.27;1725325;82;20983;-89
2023/01/04 11:28:31;;;;;;;3.50;2.08;;;;;;;4.45;100.00;101456.61;1737026;82;21443;-89
2023/01/04 11:31:31;;;;;;;4.50;1.98;;;;;;;4.46;100.00;101446.12;1742195;82;20980;-89
2023/01/04 11:34:16;;;;;;;3.12;1.90;;;;;;;4.42;100.00;101432.69;1742350;81;21113;-88
2023/01/04 11:37:01;;;;;;;4.12;2.02;;;;;;;4.47;100.00;101441.00;1741849;82;21077;-89
2023/01/04 11:39:46;;;;;;;3.22;2.00;;;;;;;4.46;100.00;101431.23;1737175;82;20991;-89
2023/01/04 11:42:31;;;;;;;3.17;2.17;;;;;;;4.43;100.00;101446.02;1731388;82;21070;-90
2023/01/04 11:45:26;;;;;;;3.47;2.15;;;;;;;4.44;100.00;101437.37;1731206;82;21007;-88
2023/01/04 11:48:13;;;;;;;2.98;2.05;;;;;;;4.52;100.00;101442.53;1733130;82;21007;-89
2023/01/04 11:50:58;;;;;;;5.05;2.70;;;;;;;4.57;100.00;101445.42;1700953;83;21003;-89
2023/01/04 11:53:43;;;;;;;4.00;1.90;;;;;;;4.63;100.00;101447.81;1677521;85;21070;-90
2023/01/04 11:56:29;;;;;;;3.80;1.95;;;;;;;4.61;100.00;101448.55;1706857;82;20991;-89
2023/01/04 11:59:17;;;;;;;4.47;2.40;;;;;;;4.65;100.00;101449.77;1739561;82;20987;-89
2023/01/04 12:02:23;;;;;;;3.90;2.20;;;;;;;4.66;100.00;101454.97;1737482;82;21007;-90
2023/01/04 12:05:21;;;;;;;4.03;1.77;;;;;;;4.65;100.00;101455.17;1731429;80;21073;-89
2023/01/04 12:08:06;;;;;;;3.30;2.20;;;;;;;4.60;100.00;101451.79;1616644;86;21014;-89
2023/01/04 12:10:50;;;;;;;3.58;2.10;;;;;;;4.61;100.00;101449.38;1706915;84;21003;-89
2023/01/04 12:13:35;;;;;;;3.98;2.22;;;;;;;4.64;100.00;101450.29;1676876;83;20996;-89
2023/01/04 12:16:43;;;;;;;4.00;2.40;;;;;;;4.64;100.00;101448.11;1614240;85;21044;-88
2023/01/04 12:19:27;;;;;;;3.60;2.42;;;;;;;4.57;100.00;101446.78;1644081;87;21040;-89
2023/01/04 12:22:20;;;;;;;4.58;2.40;;;;;;;4.56;100.00;101457.31;1667990;84;21603;-89
2023/01/04 12:25:34;;;;;;;3.95;2.30;;;;;;;4.52;100.00;101454.72;1666713;84;21036;-89
2023/01/04 12:28:40;;;;;;;3.58;2.20;;;;;;;4.51;100.00;101458.48;1658272;83;21083;-89
2023/01/04 12:31:26;;;;;;;5.42;2.60;;;;;;;4.51;100.00;101457.13;1671038;85;21055;-90
2023/01/04 12:34:29;;;;;;;6.03;2.70;;;;;;;4.48;100.00;101454.86;1647188;83;21044;-89
2023/01/04 12:37:44;;;;;;;6.35;2.75;;;;;;;4.48;100.00;101454.86;1643558;84;21422;-89
2023/01/04 12:40:49;;;;;;;3.72;2.30;;;;;;;4.51;100.00;101459.84;1670275;84;21088;-90
2023/01/04 12:43:37;;;;;;;5.47;2.40;;;;;;;4.49;100.00;101457.33;1707032;84;21018;-90
2023/01/04 12:49:50;;;;;;;5.03;2.30;;;;;;;4.47;100.00;101447.77;1717225;82;21617;-89
2023/01/04 12:52:46;;;;;;;3.37;2.27;;;;;;;4.45;100.00;101450.70;1660178;84;21048;-90
2023/01/04 12:55:42;;;;;;;5.08;2.40;;;;;;;4.44;100.00;101453.08;1726295;82;21051;-90
2023/01/04 12:58:32;;;;;;;5.87;3.02;;;;;;;4.42;100.00;101453.81;1720985;81;21040;-90
2023/01/04 13:01:25;;;;;;;5.12;2.27;;;;;;;4.39;100.00;101454.78;1705424;82;21060;-90
2023/01/04 13:04:38;;;;;;;3.50;2.30;;;;;;;4.37;100.00;101450.09;1681920;82;21608;-90
2023/01/04 13:07:31;;;;;;;3.00;1.95;;;;;;;4.36;100.00;101459.27;1731524;81;21031;-90
2023/01/04 13:10:33;;;;;;;2.70;2.08;;;;;;;4.38;100.00;101457.19;1652009;86;21494;-90
2023/01/04 13:13:45;;;;;;;6.15;2.08;;;;;;;4.37;100.00;101458.22;1700074;83;21062;-90
2023/01/04 13:16:41;;;;;;;5.05;2.12;;;;;;;4.35;100.00;101460.30;1724200;81;21486;-90
2023/01/04 13:19:28;;;;;;;4.40;2.30;;;;;;;4.35;100.00;101458.95;1733631;81;20991;-90
2023/01/04 13:22:24;;;;;;;3.75;2.55;;;;;;;4.31;100.00;101459.91;1712952;81;20982;-90
2023/01/04 13:25:11;;;;;;;4.92;3.10;;;;;;;4.28;100.00;101463.87;1723205;80;21038;-90
2023/01/04 13:28:01;;;;;;;4.85;2.52;;;;;;;4.26;100.00;101457.84;1732076;81;21027;-90
2023/01/04 13:30:46;;;;;;;5.67;2.98;;;;;;;4.25;100.00;101462.95;1733824;81;21039;-91
2023/01/04 13:33:31;;;;;;;4.80;3.25;;;;;;;4.26;100.00;101466.48;1735422;81;20999;-89
2023/01/04 13:36:15;;;;;;;7.97;3.85;;;;;;;4.22;100.00;101462.00;1737600;81;21497;-90
2023/01/04 13:39:00;;;;;;;10.18;4.12;;;;;;;4.23;100.00;101460.16;1726830;81;21019;-90
2023/01/04 13:41:45;;;;;;;7.45;4.35;;;;;;;4.21;100.00;101454.94;1736005;81;21015;-90
2023/01/04 13:44:53;;;;;;;15.80;6.28;;;;;;;4.21;100.00;101462.23;1677342;84;21051;-90
2023/01/04 13:47:40;;;;;;;15.93;7.05;;;;;;;4.23;100.00;101460.16;1716876;80;21014;-90
2023/01/04 13:50:36;;;;;;;23.00;9.85;;;;;;;4.20;100.00;101466.78;1717002;83;21026;-91
2023/01/04 13:53:24;;;;;;;14.83;6.50;;;;;;;4.21;100.00;101460.87;1685597;83;21497;-90
2023/01/04 13:56:19;;;;;;;15.83;8.10;;;;;;;4.18;100.00;101455.38;1684949;83;21058;-90
2023/01/04 16:03:49;;;;;;;7.35;4.10;;;;;;;2.65;100.00;101462.06;1822652;77;28928;-88
2023/01/04 16:06:33;;;;;;;10.63;4.00;;;;;;;2.64;100.00;101470.34;1771965;78;21009;-88
2023/01/04 16:09:18;;;;;;;12.50;5.37;;;;;;;2.66;100.00;101469.11;1750277;81;21019;-89
2023/01/04 16:15:13;;;;;;;6.72;3.85;;;;;;;2.76;100.00;101461.98;1691281;83;21054;-88
2023/01/04 16:17:57;;;;;;;13.30;5.40;;;;;;;2.81;100.00;101463.55;1676360;83;21014;-89
2023/01/04 16:20:42;;;;;;;11.18;5.50;;;;;;;2.82;100.00;101457.14;1693497;83;21031;-88
2023/01/04 16:23:29;;;;;;;12.65;5.40;;;;;;;2.83;100.00;101443.94;1742647;81;21454;-89
2023/01/04 16:26:14;;;;;;;9.95;4.45;;;;;;;2.80;100.00;101436.27;1698499;82;21078;-89
2023/01/04 16:28:59;;;;;;;8.90;4.20;;;;;;;2.75;100.00;101436.04;1741310;81;20991;-89
2023/01/04 16:31:44;;;;;;;7.30;4.33;;;;;;;2.69;100.00;101429.56;1744977;80;21006;-89
2023/01/04 16:34:29;;;;;;;7.25;3.40;;;;;;;2.66;100.00;101436.73;1755100;79;21044;-88
2023/01/04 16:37:13;;;;;;;10.10;4.80;;;;;;;2.62;100.00;101435.98;1700086;82;21497;-90
2023/01/04 16:39:58;;;;;;;10.50;4.47;;;;;;;2.59;100.00;101439.92;1689590;84;21485;-89
2023/01/04 16:42:49;;;;;;;12.10;5.30;;;;;;;2.55;100.00;101428.70;1674899;84;21078;-90
2023/01/04 16:45:30;;;;;;;8.38;4.80;;;;;;;2.52;100.00;101437.22;1743922;81;21047;-89
2023/01/04 16:48:15;;;;;;;9.18;4.60;;;;;;;2.47;100.00;101431.56;1737525;81;21050;-89
2023/01/04 16:50:59;;;;;;;13.40;6.10;;;;;;;2.42;100.00;101441.30;1734125;81;21011;-89
2023/01/04 16:53:46;;;;;;;12.78;6.47;;;;;;;2.37;100.00;101431.11;1748203;81;20978;-90
2023/01/04 16:56:32;;;;;;;16.77;7.05;;;;;;;2.34;100.00;101436.92;1738628;81;21035;-89
2023/01/04 16:59:17;;;;;;;25.45;9.50;;;;;;;2.29;100.00;101428.59;1752490;81;21019;-89
2023/01/04 17:02:02;;;;;;;36.75;17.77;;;;;;;2.25;100.00;101430.02;1758697;79;21102;-90
2023/01/04 17:04:53;;;;;;;36.13;15.83;;;;;;;2.21;100.00;101427.42;1774455;79;21367;-90
2023/01/04 17:07:33;;;;;;;80.90;29.60;;;;;;;2.16;100.00;101426.67;1713695;81;20915;-89
2023/01/04 17:10:21;;;;;;;37.98;16.50;;;;;;;2.11;100.00;101424.58;1745394;81;21045;-91
2023/01/04 17:13:06;;;;;;;15.10;8.38;;;;;;;2.06;100.00;101417.60;1750707;81;21421;-90